KSGU/SGU METAR and TAF weather

Enter ICAO airport designator
Station Type Date Time Source
KSGU METAR 2021/10/22 19:56 UTC NOAA

KSGU 221956Z AUTO 00000KT 10SM CLR 21/01 A2997 RMK AO2 SLP128 T02060011 PNO $


Station Type Date Time Source
KSGU Decoded METAR 2021/10/22 19:56 UTC NOAA

St George, St George Municipal Airport, UT, United States (KSGU) 37-05N 113-36W
Oct 22, 2021 - 03:56 PM EDT / 2021.10.22 1956 UTC
Wind: Calm:0
Visibility: 10 mile(s):0
Sky conditions: clear
Temperature: 69.1 F (20.6 C)
Dew Point: 34.0 F (1.1 C)
Relative Humidity: 27%
Pressure (altimeter): 29.97 in. Hg (1014 hPa)
ob: KSGU 221956Z AUTO 00000KT 10SM CLR 21/01 A2997 RMK AO2 SLP128 T02060011 PNO
cycle: 20

Station Type Date Time Source
KSGU TAF 2021/10/22 18:30 UTC NOAA

TAF KSGU 221729Z 2218/2318 VRB04KT P6SM BKN200
FM222100 24009KT P6SM BKN200
FM230300 14006KT P6SM FEW250
FM231400 15010KT P6SM BKN200
FM231700 22012G20KT P6SM BKN250

Example: see airport list